createdAt,value
2016-11-16T00:02:53.309Z,1019.8
2016-11-16T00:07:57.732Z,1019.8
2016-11-16T00:13:02.150Z,1019.8
2016-11-16T00:18:06.236Z,1019.8
2016-11-16T00:23:10.655Z,1019.8
2016-11-16T00:28:14.746Z,1019.8
2016-11-16T00:33:18.838Z,1019.7
2016-11-16T00:38:22.930Z,1019.7
2016-11-16T00:43:27.020Z,1019.7
2016-11-16T00:48:31.436Z,1019.7
2016-11-16T00:53:35.523Z,1019.5
2016-11-16T00:58:39.938Z,1019.4
2016-11-16T01:03:44.020Z,1019.5
2016-11-16T01:08:48.103Z,1019.4
2016-11-16T01:13:52.191Z,1019.5
2016-11-16T01:18:56.607Z,1019.5
2016-11-16T01:24:00.697Z,1019.5
2016-11-16T01:29:04.788Z,1019.5
2016-11-16T01:34:08.893Z,1019.5
2016-11-16T01:39:13.999Z,1019.5
2016-11-16T01:44:18.097Z,1019.4
2016-11-16T01:49:22.180Z,1019.4
2016-11-16T01:54:26.261Z,1019.3
2016-11-16T01:59:30.686Z,1019.2
2016-11-16T02:04:34.765Z,1019.2
2016-11-16T02:09:38.846Z,1019.2
2016-11-16T02:14:43.267Z,1019.2
2016-11-16T02:19:47.354Z,1019.1
2016-11-16T02:24:51.440Z,1019.1
2016-11-16T02:29:56.202Z,1019.1
2016-11-16T02:35:00.959Z,1018.9
2016-11-16T02:40:05.372Z,1018.9
2016-11-16T02:45:10.132Z,1018.8
2016-11-16T02:50:14.554Z,1018.7
2016-11-16T02:55:18.645Z,1018.6
2016-11-16T03:00:23.065Z,1018.6
2016-11-16T03:05:27.135Z,1018.5
2016-11-16T03:10:31.216Z,1018.4
2016-11-16T03:15:35.632Z,1018.4
2016-11-16T03:20:40.044Z,1018.4
2016-11-16T03:25:44.156Z,1018.4
2016-11-16T03:30:48.217Z,1018.4
2016-11-16T03:35:52.306Z,1018.3
2016-11-16T03:40:56.726Z,1018.3
2016-11-16T03:46:00.810Z,1018.2
2016-11-16T03:51:04.897Z,1018.2
2016-11-16T03:56:08.975Z,1018.1
2016-11-16T04:01:13.392Z,1018.1
2016-11-16T04:06:17.474Z,1018
2016-11-16T04:11:21.555Z,1017.9
2016-11-16T04:16:25.978Z,1018
2016-11-16T04:21:30.725Z,1017.9
2016-11-16T04:26:34.817Z,1017.8
2016-11-16T04:31:39.568Z,1017.7
2016-11-16T04:36:43.648Z,1017.5
2016-11-16T04:41:48.068Z,1017.4
2016-11-16T04:46:52.490Z,1017.4
2016-11-16T04:51:56.573Z,1017.2
2016-11-16T04:57:00.662Z,1017.1
2016-11-16T05:02:05.445Z,1017.1
2016-11-16T05:07:09.546Z,1017
2016-11-16T05:12:13.633Z,1016.9
2016-11-16T05:17:17.717Z,1016.8
2016-11-16T05:22:21.812Z,1016.7
2016-11-16T05:27:25.905Z,1016.5
2016-11-16T05:32:30.313Z,1016.4
2016-11-16T05:37:34.735Z,1016.2
2016-11-16T05:42:39.151Z,1016.3
2016-11-16T05:47:43.568Z,1016.3
2016-11-16T05:52:47.698Z,1016.2
2016-11-16T05:57:52.454Z,1016.1
2016-11-16T06:02:57.327Z,1016
2016-11-16T06:08:01.715Z,1015.9
2016-11-16T06:13:06.466Z,1015.9
2016-11-16T06:18:10.555Z,1015.8
2016-11-16T06:23:14.644Z,1015.7
2016-11-16T06:28:18.726Z,1015.8
2016-11-16T06:33:22.826Z,1015.7
2016-11-16T06:38:26.921Z,1015.5
2016-11-16T06:43:31.341Z,1015.6
2016-11-16T06:48:35.764Z,1015.6
2016-11-16T06:53:40.185Z,1015.4
2016-11-16T06:58:44.270Z,1015.2
2016-11-16T07:03:48.352Z,1015.1
2016-11-16T07:08:52.772Z,1015
2016-11-16T07:13:57.192Z,1014.9
2016-11-16T07:19:01.279Z,1014.9
2016-11-16T07:24:05.421Z,1015
2016-11-16T07:29:09.850Z,1015
2016-11-16T07:34:14.279Z,1014.9
2016-11-16T07:39:18.363Z,1014.8
2016-11-16T07:44:22.449Z,1014.8
2016-11-16T07:49:26.530Z,1014.7
2016-11-16T07:54:31.033Z,1014.5
2016-11-16T07:59:35.117Z,1014.5
2016-11-16T08:04:39.211Z,1014.4
2016-11-16T08:09:43.295Z,1014.2
2016-11-16T08:14:47.377Z,1014.1
2016-11-16T08:19:51.460Z,1014
2016-11-16T08:24:55.897Z,1013.9
2016-11-16T08:29:59.993Z,1013.9
2016-11-16T08:35:04.080Z,1013.7
2016-11-16T08:40:08.504Z,1013.7
2016-11-16T08:45:12.595Z,1013.6
2016-11-16T08:50:16.688Z,1013.6
2016-11-16T08:55:20.776Z,1013.5
2016-11-16T09:00:24.859Z,1013.3
2016-11-16T09:05:28.951Z,1013.1
2016-11-16T09:10:33.709Z,1013
2016-11-16T09:15:37.798Z,1013
2016-11-16T09:20:42.226Z,1012.9
2016-11-16T09:25:46.662Z,1012.9
2016-11-16T09:30:51.085Z,1012.7
2016-11-16T09:35:55.848Z,1012.5
2016-11-16T09:41:00.269Z,1012.4
2016-11-16T09:46:04.696Z,1012.4
2016-11-16T09:51:09.115Z,1012.3
2016-11-16T09:56:13.197Z,1012.2
2016-11-16T10:01:17.286Z,1011.9
2016-11-16T10:06:21.374Z,1011.8
2016-11-16T10:11:25.463Z,1011.8
2016-11-16T10:16:29.545Z,1011.6
2016-11-16T10:21:33.630Z,1011.5
2016-11-16T10:26:37.716Z,1011.2
2016-11-16T10:31:42.137Z,1011
2016-11-16T10:36:46.222Z,1010.9
2016-11-16T10:41:50.978Z,1010.7
2016-11-16T10:46:55.062Z,1010.7
2016-11-16T10:51:59.474Z,1010.8
2016-11-16T10:57:03.892Z,1010.6
2016-11-16T11:02:07.980Z,1010.6
2016-11-16T11:07:12.407Z,1010.5
2016-11-16T11:12:16.493Z,1010.4
2016-11-16T11:17:20.581Z,1010.3
2016-11-16T11:22:25.006Z,1010.5
2016-11-16T11:27:29.105Z,1010.2
2016-11-16T11:32:33.522Z,1010.1
2016-11-16T11:37:37.613Z,1010.1
2016-11-16T11:42:41.699Z,1010.1
2016-11-16T11:47:45.792Z,1009.9
2016-11-16T11:52:49.879Z,1009.9
2016-11-16T11:57:54.305Z,1009.8
2016-11-16T12:02:58.724Z,1009.7
2016-11-16T12:08:03.821Z,1009.6
2016-11-16T12:13:07.909Z,1009.5
2016-11-16T12:18:12.007Z,1009.6
2016-11-16T12:23:16.425Z,1009.4
2016-11-16T12:28:20.843Z,1009.4
2016-11-16T12:33:24.932Z,1009.3
2016-11-16T12:38:29.686Z,1009.3
2016-11-16T12:43:33.802Z,1009.1
2016-11-16T12:48:37.885Z,1009.1
2016-11-16T12:53:42.324Z,1009
2016-11-16T12:58:46.415Z,1009.1
2016-11-16T13:03:50.582Z,1009
2016-11-16T13:08:55.002Z,1009
2016-11-16T13:13:59.937Z,1009
2016-11-16T13:19:04.356Z,1008.9
2016-11-16T13:24:08.787Z,1009
2016-11-16T13:29:12.879Z,1008.9
2016-11-16T13:34:16.982Z,1009
2016-11-16T13:39:21.744Z,1009
2016-11-16T13:44:26.164Z,1009
2016-11-16T13:49:30.595Z,1008.9
2016-11-16T13:54:34.679Z,1008.9
2016-11-16T13:59:38.765Z,1009
2016-11-16T14:04:43.559Z,1008.9
2016-11-16T14:09:47.682Z,1008.8
2016-11-16T14:14:51.765Z,1008.8
2016-11-16T14:19:55.926Z,1008.7
2016-11-16T14:25:00.002Z,1008.7
2016-11-16T14:30:04.432Z,1008.7
2016-11-16T14:35:09.190Z,1008.8
2016-11-16T14:40:13.617Z,1008.6
2016-11-16T14:45:17.707Z,1008.6
2016-11-16T14:50:21.802Z,1008.6
2016-11-16T14:55:25.890Z,1008.6
2016-11-16T15:00:30.664Z,1008.6
2016-11-16T15:05:34.749Z,1008.5
2016-11-16T15:10:39.511Z,1008.5
2016-11-16T15:15:43.942Z,1008.5
2016-11-16T15:20:48.395Z,1008.5
2016-11-16T15:25:52.503Z,1008.5
2016-11-16T15:30:56.613Z,1008.6
2016-11-16T15:36:00.704Z,1008.5
2016-11-16T15:41:05.124Z,1008.5
2016-11-16T15:46:09.205Z,1008.4
2016-11-16T15:51:13.520Z,1008.4
2016-11-16T15:56:17.600Z,1008.4
2016-11-16T16:01:22.045Z,1008.4
2016-11-16T16:06:26.247Z,1008.3
2016-11-16T16:11:30.353Z,1008.3
2016-11-16T16:16:34.793Z,1008.2
2016-11-16T16:21:39.233Z,1008.3
2016-11-16T16:26:43.316Z,1008.2
2016-11-16T16:31:48.085Z,1008.3
2016-11-16T16:36:52.168Z,1008.2
2016-11-16T16:41:56.377Z,1008.1
2016-11-16T16:47:00.800Z,1008.1
2016-11-16T16:52:05.552Z,1008.1
2016-11-16T16:57:10.315Z,1008.1
2016-11-16T17:02:14.396Z,1008.1
2016-11-16T17:07:18.834Z,1008
2016-11-16T17:12:22.919Z,1008
2016-11-16T17:17:27.351Z,1008
2016-11-16T17:22:31.776Z,1007.9
2016-11-16T17:27:36.210Z,1008
2016-11-16T17:32:40.317Z,1007.9
2016-11-16T17:37:44.420Z,1007.9
2016-11-16T17:42:49.386Z,1007.8
2016-11-16T17:47:53.805Z,1007.8
2016-11-16T17:52:57.890Z,1007.8
2016-11-16T17:58:01.977Z,1007.7
2016-11-16T18:03:06.397Z,1007.8
2016-11-16T18:08:10.819Z,1007.8
2016-11-16T18:13:15.241Z,1007.7
2016-11-16T18:18:19.324Z,1007.6
2016-11-16T18:23:23.411Z,1007.7
2016-11-16T18:28:27.492Z,1007.8
2016-11-16T18:33:31.937Z,1007.6
2016-11-16T18:38:36.041Z,1007.6
2016-11-16T18:43:40.188Z,1007.5
2016-11-16T18:48:44.308Z,1007.5
2016-11-16T18:53:49.104Z,1007.4
2016-11-16T18:58:53.198Z,1007.4
2016-11-16T19:03:57.950Z,1007.4
2016-11-16T19:09:02.373Z,1007.3
2016-11-16T19:14:07.467Z,1007.5
2016-11-16T19:19:11.552Z,1007.5
2016-11-16T19:24:15.644Z,1007.5
2016-11-16T19:29:20.062Z,1007.5
2016-11-16T19:34:24.512Z,1007.5
2016-11-16T19:39:28.829Z,1007.5
2016-11-16T19:44:32.919Z,1007.6
2016-11-16T19:49:37.001Z,1007.5
2016-11-16T19:54:41.426Z,1007.5
2016-11-16T19:59:45.509Z,1007.5
2016-11-16T20:04:49.593Z,1007.5
2016-11-16T20:09:54.019Z,1007.5
2016-11-16T20:14:58.105Z,1007.5
2016-11-16T20:20:02.537Z,1007.6
2016-11-16T20:25:06.960Z,1007.7
2016-11-16T20:30:11.409Z,1007.6
2016-11-16T20:35:15.526Z,1007.5
2016-11-16T20:40:19.647Z,1007.5
2016-11-16T20:45:24.006Z,1007.5
2016-11-16T20:50:28.762Z,1007.5
2016-11-16T20:55:32.845Z,1007.5
2016-11-16T21:00:37.271Z,1007.5
2016-11-16T21:05:41.697Z,1007.5
2016-11-16T21:10:45.808Z,1007.5
2016-11-16T21:15:49.918Z,1007.5
2016-11-16T21:20:54.009Z,1007.5
2016-11-16T21:25:58.435Z,1007.5
2016-11-16T21:31:02.558Z,1007.5
2016-11-16T21:36:06.673Z,1007.5
2016-11-16T21:41:11.130Z,1007.5
2016-11-16T21:46:15.558Z,1007.6
2016-11-16T21:51:20.151Z,1007.6
2016-11-16T21:56:24.250Z,1007.5
2016-11-16T22:01:28.675Z,1007.5
2016-11-16T22:06:33.476Z,1007.5
2016-11-16T22:11:38.292Z,1007.5
2016-11-16T22:16:42.395Z,1007.4
2016-11-16T22:21:46.505Z,1007.5
2016-11-16T22:26:50.622Z,1007.3
2016-11-16T22:31:54.737Z,1007.3
2016-11-16T22:36:59.378Z,1007.4
2016-11-16T22:42:03.802Z,1007.4
2016-11-16T22:47:08.224Z,1007.5
2016-11-16T22:52:12.648Z,1007.5
2016-11-16T22:57:17.736Z,1007.4
2016-11-16T23:02:21.832Z,1007.3
2016-11-16T23:07:25.919Z,1007.3
2016-11-16T23:12:30.010Z,1007.3
2016-11-16T23:17:34.097Z,1007.2
2016-11-16T23:22:38.188Z,1007.2
2016-11-16T23:27:42.276Z,1007.1
2016-11-16T23:32:46.383Z,1007.1
2016-11-16T23:37:50.492Z,1007
2016-11-16T23:42:54.923Z,1007.1
2016-11-16T23:47:59.018Z,1007.1
2016-11-16T23:53:03.109Z,1007
2016-11-16T23:58:07.869Z,1007.1
